createdAt,value
2019-04-03T00:01:44.166Z,57
2019-04-03T00:06:44.171Z,60
2019-04-03T00:11:44.211Z,59
2019-04-03T00:16:46.167Z,56
2019-04-03T00:21:44.618Z,59
2019-04-03T00:26:44.229Z,61
2019-04-03T00:31:44.150Z,58
2019-04-03T00:36:44.147Z,58
2019-04-03T00:41:44.124Z,62
2019-04-03T00:46:44.148Z,58
2019-04-03T00:51:44.137Z,63
2019-04-03T00:56:44.172Z,62
2019-04-03T01:01:44.320Z,63
2019-04-03T01:06:44.326Z,61
2019-04-03T01:11:44.099Z,65
2019-04-03T01:16:44.108Z,62
2019-04-03T01:21:44.137Z,64
2019-04-03T01:26:44.137Z,62
2019-04-03T01:31:45.313Z,66
2019-04-03T01:36:44.059Z,63
2019-04-03T01:41:44.120Z,63
2019-04-03T01:46:44.094Z,63
2019-04-03T01:51:44.105Z,63
2019-04-03T01:56:44.130Z,66
2019-04-03T02:01:44.074Z,65
2019-04-03T02:06:44.447Z,63
2019-04-03T02:11:44.017Z,64
2019-04-03T02:16:44.069Z,62
2019-04-03T02:21:44.038Z,62
2019-04-03T02:26:44.020Z,67
2019-04-03T02:31:44.030Z,65
2019-04-03T02:36:45.728Z,65
2019-04-03T02:41:44.201Z,61
2019-04-03T02:46:44.196Z,65
2019-04-03T02:51:44.094Z,62
2019-04-03T02:56:46.504Z,68
2019-04-03T03:01:44.001Z,65
2019-04-03T03:06:44.006Z,65
2019-04-03T03:11:44.022Z,65
2019-04-03T03:16:44.000Z,67
2019-04-03T03:21:46.210Z,65
2019-04-03T03:26:43.982Z,68
2019-04-03T03:32:20.651Z,67
2019-04-03T03:36:44.903Z,69
2019-04-03T03:41:43.927Z,65
2019-04-03T03:46:44.094Z,62
2019-04-03T03:51:43.940Z,63
2019-04-03T03:56:44.010Z,63
2019-04-03T04:01:43.980Z,65
2019-04-03T04:06:43.880Z,68
2019-04-03T04:11:44.200Z,68
2019-04-03T04:16:44.423Z,70
2019-04-03T04:21:45.402Z,68
2019-04-03T04:26:43.887Z,70
2019-04-03T04:31:44.588Z,71
2019-04-03T04:36:43.887Z,67
2019-04-03T04:41:43.856Z,72
2019-04-03T04:46:45.077Z,69
2019-04-03T04:51:43.882Z,71
2019-04-03T04:56:43.821Z,72
2019-04-03T05:01:43.817Z,69
2019-04-03T05:06:43.861Z,72
2019-04-03T05:11:43.874Z,71
2019-04-03T05:16:43.844Z,70
2019-04-03T05:21:43.820Z,69
2019-04-03T05:26:44.037Z,70
2019-04-03T05:31:43.883Z,68
2019-04-03T05:36:44.112Z,126
2019-04-03T05:41:43.870Z,85
2019-04-03T05:46:43.765Z,70
2019-04-03T05:51:43.758Z,67
2019-04-03T05:56:43.791Z,70
2019-04-03T06:01:47.297Z,64
2019-04-03T06:06:47.521Z,61
2019-04-03T06:11:44.018Z,61
2019-04-03T06:16:44.136Z,64
2019-04-03T06:21:46.635Z,64
2019-04-03T06:26:45.166Z,56
2019-04-03T06:31:43.710Z,56
2019-04-03T06:36:43.916Z,52
2019-04-03T06:41:43.700Z,49
2019-04-03T06:46:43.699Z,43
2019-04-03T06:51:43.760Z,44
2019-04-03T06:56:43.720Z,45
2019-04-03T07:01:43.967Z,49
2019-04-03T07:06:45.783Z,46
2019-04-03T07:11:44.164Z,44
2019-04-03T07:16:43.657Z,46
2019-04-03T07:21:43.690Z,43
2019-04-03T07:26:43.907Z,45
2019-04-03T07:31:44.023Z,39
2019-04-03T07:36:46.815Z,36
2019-04-03T07:41:43.669Z,35
2019-04-03T07:46:43.746Z,38
2019-04-03T07:51:44.601Z,33
2019-04-03T07:56:43.622Z,33
2019-04-03T08:01:43.635Z,37
2019-04-03T08:06:43.616Z,34
2019-04-03T08:11:43.678Z,36
2019-04-03T08:16:43.714Z,37
2019-04-03T08:21:43.624Z,33
2019-04-03T08:26:43.642Z,30
2019-04-03T08:31:49.011Z,31
2019-04-03T08:36:44.119Z,31
2019-04-03T08:41:43.616Z,34
2019-04-03T08:46:44.693Z,30
2019-04-03T08:51:43.632Z,31
2019-04-03T08:56:43.579Z,34
2019-04-03T09:01:43.737Z,32
2019-04-03T09:06:43.554Z,35
2019-04-03T09:11:43.627Z,32
2019-04-03T09:16:43.596Z,32
2019-04-03T09:21:51.361Z,27
2019-04-03T09:26:43.541Z,27
2019-04-03T09:31:43.540Z,28
2019-04-03T09:36:43.597Z,23
2019-04-03T09:41:43.542Z,21
2019-04-03T09:46:45.668Z,21
2019-04-03T09:51:43.545Z,18
2019-04-03T09:57:05.257Z,17
2019-04-03T10:01:43.491Z,19
2019-04-03T10:06:43.839Z,17
2019-04-03T10:11:43.522Z,16
2019-04-03T10:16:43.502Z,17
2019-04-03T10:21:43.462Z,16
2019-04-03T10:26:43.802Z,18
2019-04-03T10:31:43.794Z,16
2019-04-03T10:36:43.884Z,15
2019-04-03T10:41:43.857Z,18
2019-04-03T10:46:43.474Z,17
2019-04-03T10:51:43.962Z,15
2019-04-03T10:56:43.436Z,21
2019-04-03T11:01:43.627Z,21
2019-04-03T11:06:43.483Z,18
2019-04-03T11:11:44.232Z,18
2019-04-03T11:16:47.333Z,19
2019-04-03T11:21:45.606Z,16
2019-04-03T11:26:43.461Z,15
2019-04-03T11:31:43.531Z,15
2019-04-03T11:36:43.428Z,18
2019-04-03T11:41:43.614Z,20
2019-04-03T11:46:43.565Z,18
2019-04-03T11:51:43.425Z,21
2019-04-03T11:56:45.968Z,18
2019-04-03T12:01:43.381Z,18
2019-04-03T12:06:43.449Z,19
2019-04-03T12:11:43.803Z,22
2019-04-03T12:16:43.404Z,23
2019-04-03T12:21:43.564Z,21
2019-04-03T12:26:44.756Z,22
2019-04-03T12:31:43.956Z,24
2019-04-03T12:36:47.018Z,21
2019-04-03T12:41:44.215Z,21
2019-04-03T12:46:43.638Z,29
2019-04-03T12:51:43.393Z,23
2019-04-03T12:56:43.627Z,26
2019-04-03T13:01:43.369Z,27
2019-04-03T13:06:43.582Z,26
2019-04-03T13:11:43.348Z,24
2019-04-03T13:16:47.684Z,29
2019-04-03T13:21:43.348Z,35
2019-04-03T13:26:43.326Z,35
2019-04-03T13:31:47.685Z,34
2019-04-03T13:36:43.322Z,35
2019-04-03T13:41:43.869Z,38
2019-04-03T13:46:43.304Z,35
2019-04-03T13:51:43.296Z,31
2019-04-03T13:56:44.117Z,33
2019-04-03T14:01:43.263Z,33
2019-04-03T14:06:43.273Z,34
2019-04-03T14:11:43.311Z,33
2019-04-03T14:16:43.292Z,39
2019-04-03T14:21:43.322Z,38
2019-04-03T14:26:46.921Z,42
2019-04-03T14:31:43.443Z,36
2019-04-03T14:36:43.674Z,38
2019-04-03T14:41:43.242Z,38
2019-04-03T14:46:43.619Z,35
2019-04-03T14:51:44.421Z,36
2019-04-03T14:56:43.464Z,42
2019-04-03T15:01:43.309Z,42
2019-04-03T15:06:47.894Z,36
2019-04-03T15:11:43.226Z,38
2019-04-03T15:16:43.225Z,57
2019-04-03T15:21:43.261Z,51
2019-04-03T15:26:43.202Z,42
2019-04-03T15:31:46.976Z,44
2019-04-03T15:36:43.240Z,37
2019-04-03T15:41:43.691Z,36
2019-04-03T15:46:43.220Z,36
2019-04-03T15:51:43.170Z,41
2019-04-03T15:56:46.605Z,34
2019-04-03T16:01:43.471Z,34
2019-04-03T16:06:43.186Z,31
2019-04-03T16:11:43.197Z,49
2019-04-03T16:16:43.157Z,43
2019-04-03T16:21:43.153Z,40
2019-04-03T16:26:43.139Z,40
2019-04-03T16:29:09.581Z,38
2019-04-03T16:34:13.794Z,53
2019-04-03T16:39:09.549Z,52
2019-04-03T16:44:09.551Z,47
2019-04-03T16:49:09.500Z,47
2019-04-03T16:54:12.832Z,45
2019-04-03T16:59:09.495Z,49
2019-04-03T17:04:10.548Z,48
2019-04-03T17:09:09.525Z,49
2019-04-03T17:14:09.476Z,48
2019-04-03T17:19:09.503Z,91
2019-04-03T17:24:09.653Z,73
2019-04-03T17:29:15.475Z,92
2019-04-03T17:34:10.032Z,74
2019-04-03T17:39:10.223Z,66
2019-04-03T17:44:09.503Z,61
2019-04-03T17:49:09.462Z,60
2019-04-03T17:54:09.479Z,182
2019-04-03T17:59:09.475Z,72
2019-04-03T18:04:09.442Z,65
2019-04-03T18:44:24.426Z,77
2019-04-03T18:49:09.170Z,91
2019-04-03T18:54:12.206Z,93
2019-04-03T18:59:09.133Z,104
2019-04-03T19:04:09.114Z,89
2019-04-03T19:09:10.547Z,83
2019-04-03T19:14:09.129Z,80
2019-04-03T19:19:09.088Z,108
2019-04-03T19:24:09.070Z,130
2019-04-03T19:29:09.111Z,137
2019-04-03T19:34:09.130Z,121
2019-04-03T19:39:09.145Z,87
2019-04-03T19:44:09.059Z,134
2019-04-03T19:49:09.068Z,243
2019-04-03T19:54:09.046Z,173
2019-04-03T19:59:09.082Z,181
2019-04-03T20:04:09.050Z,148
2019-04-03T20:09:09.057Z,130
2019-04-03T20:14:12.135Z,124
2019-04-03T20:19:09.052Z,168
2019-04-03T20:24:09.083Z,191
2019-04-03T20:29:09.046Z,151
2019-04-03T20:34:09.045Z,139
2019-04-03T20:39:09.015Z,146
2019-04-03T20:44:08.977Z,179
2019-04-03T20:49:09.037Z,166
2019-04-03T20:54:12.082Z,141
2019-04-03T20:59:12.290Z,151
2019-04-03T21:04:08.970Z,143
2019-04-03T21:09:08.979Z,135
2019-04-03T21:14:11.822Z,115
2019-04-03T21:19:08.979Z,111
2019-04-03T21:24:08.928Z,123
2019-04-03T21:29:08.977Z,183
2019-04-03T21:34:08.974Z,183
2019-04-03T21:39:08.928Z,175
2019-04-03T21:44:08.967Z,159
2019-04-03T21:49:08.921Z,148
2019-04-03T21:54:08.897Z,134
2019-04-03T21:59:11.533Z,113
2019-04-03T22:04:08.933Z,145
2019-04-03T22:09:08.913Z,189
2019-04-03T22:14:11.786Z,171
2019-04-03T22:19:08.950Z,123
2019-04-03T22:24:08.870Z,125
2019-04-03T22:29:08.923Z,117
2019-04-03T22:34:08.950Z,104
2019-04-03T22:39:08.885Z,103
2019-04-03T22:44:08.874Z,157
2019-04-03T22:49:08.912Z,138
2019-04-03T22:54:08.831Z,125
2019-04-03T22:59:08.829Z,123
2019-04-03T23:04:08.922Z,116
2019-04-03T23:09:08.862Z,113
2019-04-03T23:14:08.875Z,124
2019-04-03T23:19:08.829Z,113
2019-04-03T23:24:08.930Z,115
2019-04-03T23:29:08.843Z,120
2019-04-03T23:34:08.829Z,116
2019-04-03T23:39:08.809Z,115
2019-04-03T23:44:11.717Z,121
2019-04-03T23:49:08.848Z,115
2019-04-03T23:54:08.766Z,112
2019-04-03T23:59:08.825Z,123
